Data for 09/13/2009

Time Sea-Level Adjusted Pressure Absolute Pressure Temperature Relative Humidity Dew Point   
(mb) (inHg) (mb) (inHg) (C) (F) (%) (C) (F)
00:05 1016 30 845 24.95 12.6 54.7 49 2.4 36.3
00:10 1016 30 845 24.95 12.7 54.8 49 2.4 36.3
00:15 1016 30 845 24.95 12.6 54.6 50 2.5 36.5
00:20 1016 30 845 24.95 12.5 54.5 51 2.6 36.7
00:25 1016 30 845 24.95 12.4 54.3 50 2.5 36.4
00:30 1016 30 845 24.95 12.4 54.2 51 2.6 36.7
00:35 1016 30 845 24.95 12.3 54.1 51 2.6 36.6
00:40 1016 30 845 24.95 12.3 54.1 52 2.6 36.7
00:45 1016 30 845 24.95 12.2 53.9 52 2.6 36.6
00:50 1016 30 845 24.95 12.1 53.8 52 2.6 36.7
00:55 1016 30 845 24.95 12 53.7 53 2.7 36.8
01:00 1015 29.97 845 24.95 11.9 53.5 53 2.7 36.8
01:05 1015 29.97 845 24.95 11.8 53.3 54 2.7 36.9
01:10 1015 29.97 845 24.95 11.7 53 54 2.7 36.9
01:15 1015 29.97 845 24.95 11.6 52.9 54 2.7 36.8
01:20 1015 29.97 845 24.95 11.8 53.2 54 2.8 37.1
01:25 1015 29.97 845 24.95 11.6 52.8 55 2.8 37.1
01:30 1015 29.97 844 24.92 11.5 52.6 55 2.9 37.2
01:35 1015 29.97 844 24.92 11.5 52.8 55 2.9 37.3
01:40 1015 29.97 844 24.92 11.6 52.9 55 3 37.3
01:45 1015 29.97 844 24.92 11.5 52.7 56 3 37.4
01:50 1015 29.97 844 24.92 11.5 52.6 56 3 37.4
01:55 1015 29.97 844 24.92 11.4 52.5 56 3.1 37.5
02:00 1015 29.97 844 24.92 11.3 52.3 57 3.1 37.6
02:05 1015 29.97 844 24.92 11.1 52.1 57 3.1 37.5
02:10 1015 29.97 844 24.92 11.1 52.1 58 3.2 37.7
02:15 1015 29.97 844 24.92 11 51.8 58 3.1 37.6
02:20 1015 29.97 844 24.92 10.9 51.7 59 3.2 37.8
02:25 1015 29.97 844 24.92 10.8 51.4 59 3.2 37.7
02:30 1015 29.97 844 24.92 10.8 51.4 59 3.1 37.6
02:35 1015 29.97 844 24.92 10.9 51.5 59 3.2 37.7
02:40 1015 29.97 844 24.92 10.8 51.4 59 3.2 37.7
02:45 1015 29.97 844 24.92 10.8 51.4 59 3.3 37.9
02:50 1015 29.97 844 24.92 10.8 51.4 60 3.3 37.9
02:55 1015 29.97 844 24.92 10.6 51.1 61 3.4 38
03:00 1015 29.97 844 24.92 10.5 50.8 61 3.3 38
03:05 1015 29.97 844 24.92 10.4 50.8 61 3.3 38
03:10 1015 29.97 844 24.92 10.4 50.7 62 3.4 38.1
03:15 1014 29.94 844 24.92 10.4 50.6 62 3.4 38.2
03:20 1014 29.94 844 24.92 10.3 50.5 62 3.4 38.1
03:25 1014 29.94 844 24.92 10.3 50.6 63 3.5 38.3
03:30 1014 29.94 843 24.89 10.3 50.5 63 3.5 38.3
03:35 1014 29.94 843 24.89 10.2 50.4 63 3.6 38.4
03:40 1014 29.94 843 24.89 10.2 50.3 63 3.6 38.4
03:45 1014 29.94 843 24.89 10.1 50.1 64 3.6 38.5
03:50 1014 29.94 843 24.89 10.1 50.3 64 3.6 38.5
03:55 1014 29.94 843 24.89 10.2 50.3 64 3.7 38.7
04:00 1014 29.94 843 24.89 10.1 50.3 64 3.8 38.8
04:05 1014 29.94 843 24.89 10.1 50.2 65 3.8 38.8
04:10 1014 29.94 843 24.89 10.1 50.1 65 3.8 38.8
04:15 1014 29.94 843 24.89 10 50 65 3.9 38.9
04:20 1014 29.94 843 24.89 10 50 66 4 39.2
04:25 1014 29.94 843 24.89 9.9 49.7 67 4.1 39.3
04:30 1014 29.94 843 24.89 9.8 49.6 67 4 39.2
04:35 1014 29.94 843 24.89 9.7 49.5 67 4 39.2
04:40 1014 29.94 843 24.89 9.7 49.5 68 4.1 39.3
04:45 1014 29.94 843 24.89 9.7 49.4 68 4.2 39.5
04:50 1014 29.94 843 24.89 9.6 49.3 69 4.2 39.5
04:55 1014 29.94 843 24.89 9.6 49.2 69 4.2 39.5
05:00 1014 29.94 843 24.89 9.5 49.1 69 4.2 39.5
05:05 1014 29.94 843 24.89 9.4 49 70 4.3 39.7
05:10 1013 29.91 843 24.89 9.3 48.8 71 4.4 39.9
05:15 1013 29.91 843 24.89 9.2 48.6 72 4.5 40
05:20 1013 29.91 843 24.89 9.2 48.5 72 4.4 39.9
05:25 1013 29.91 843 24.89 9.2 48.6 72 4.5 40.1
05:30 1013 29.91 842 24.86 9.2 48.5 73 4.6 40.2
05:35 1013 29.91 842 24.86 9.3 48.7 72 4.5 40.1
05:40 1013 29.91 842 24.86 9.3 48.8 72 4.6 40.4
05:45 1013 29.91 842 24.86 9.3 48.8 73 4.8 40.6
05:50 1013 29.91 842 24.86 9.2 48.5 73 4.6 40.4
05:55 1013 29.91 842 24.86 9.2 48.5 74 4.8 40.6
06:00 1013 29.91 842 24.86 9 48.3 75 4.9 40.7
06:05 1013 29.91 842 24.86 9 48.1 75 4.8 40.6
06:10 1013 29.91 842 24.86 8.9 48 75 4.8 40.6
06:15 1013 29.91 842 24.86 8.9 47.9 75 4.7 40.5
06:20 1013 29.91 842 24.86 8.9 48 75 4.7 40.5
06:25 1013 29.91 842 24.86 8.9 48 75 4.7 40.4
06:30 1013 29.91 842 24.86 9 48.2 74 4.7 40.4
06:35 1013 29.91 842 24.86 9.1 48.3 74 4.7 40.4
06:40 1013 29.91 842 24.86 9 48.1 75 4.8 40.7
06:45 1013 29.91 842 24.86 8.9 48 75 4.7 40.5
06:50 1013 29.91 842 24.86 8.8 47.9 76 4.9 40.7
06:55 1013 29.91 842 24.86 8.7 47.6 77 4.9 40.9
07:00 1013 29.91 842 24.86 8.6 47.4 78 4.9 40.8
07:05 1013 29.91 842 24.86 8.6 47.4 77 4.8 40.7
07:10 1013 29.91 842 24.86 8.6 47.4 77 4.8 40.7
07:15 1013 29.91 842 24.86 8.6 47.4 78 4.9 40.8
07:20 1013 29.91 842 24.86 8.5 47.4 78 4.9 40.8
07:25 1013 29.91 842 24.86 8.4 47.1 78 4.9 40.8
07:30 1013 29.91 842 24.86 8.4 47.2 78 4.8 40.6
07:35 1013 29.91 842 24.86 8.6 47.4 77 4.7 40.5
07:40 1013 29.91 842 24.86 8.7 47.6 76 4.7 40.4
07:45 1013 29.91 842 24.86 8.6 47.5 76 4.7 40.4
07:50 1013 29.91 842 24.86 8.7 47.7 75 4.6 40.2
07:55 1013 29.91 842 24.86 8.8 47.9 74 4.5 40.2
08:00 1013 29.91 842 24.86 9 48.2 74 4.6 40.3
08:05 1013 29.91 842 24.86 9.1 48.4 74 4.7 40.4
08:10 1013 29.91 842 24.86 9.3 48.7 73 4.6 40.4
08:15 1013 29.91 842 24.86 9.3 48.8 73 4.7 40.4
08:20 1013 29.91 842 24.86 9.4 48.8 73 4.8 40.6
08:25 1013 29.91 842 24.86 9.4 48.9 72 4.5 40.2
08:30 1013 29.91 842 24.86 9.6 49.2 71 4.6 40.2
08:35 1013 29.91 842 24.86 9.7 49.5 70 4.5 40.2
08:40 1013 29.91 842 24.86 9.8 49.7 70 4.7 40.4
08:45 1013 29.91 842 24.86 9.9 49.8 70 4.6 40.3
08:50 1013 29.91 842 24.86 9.9 49.8 70 4.7 40.5
08:55 1013 29.91 842 24.86 9.9 49.8 70 4.8 40.6
09:00 1013 29.91 842 24.86 9.9 49.8 71 4.9 40.9
09:05 1013 29.91 842 24.86 9.9 49.9 71 5 41
09:10 1013 29.91 842 24.86 9.9 49.9 71 5 41.1
09:15 1013 29.91 842 24.86 9.8 49.7 71 4.9 40.8
09:20 1013 29.91 842 24.86 10 50.1 70 4.9 40.8
09:25 1013 29.91 842 24.86 10 50 70 4.8 40.7
09:30 1013 29.91 842 24.86 10 50 70 4.8 40.7
09:35 1013 29.91 842 24.86 10 50 71 5 40.9
09:40 1013 29.91 842 24.86 10.1 50.1 70 4.9 40.9
09:45 1013 29.91 842 24.86 10.1 50.1 71 5 41
09:50 1013 29.91 842 24.86 10.2 50.4 71 5.1 41.3
09:55 1013 29.91 842 24.86 10.3 50.5 71 5.2 41.4
10:00 1013 29.91 842 24.86 10.3 50.6 70 5.1 41.2
10:05 1013 29.91 842 24.86 10.5 50.8 70 5.2 41.4
10:10 1013 29.91 842 24.86 10.7 51.3 68 5.1 41.2
10:15 1013 29.91 842 24.86 11 51.9 67 5.3 41.5
10:20 1013 29.91 842 24.86 11 51.9 66 5 41
10:25 1013 29.91 842 24.86 11.4 52.4 65 5.1 41.2
10:30 1013 29.91 842 24.86 11.5 52.6 65 5.2 41.3
10:35 1013 29.91 842 24.86 11.4 52.5 64 4.9 40.9
10:40 1013 29.91 842 24.86 11.7 53.1 63 5 41.1
10:45 1013 29.91 842 24.86 12.1 53.7 62 5.1 41.3
10:50 1013 29.91 842 24.86 12.5 54.5 59 4.8 40.7
10:55 1013 29.91 842 24.86 13 55.5 56 4.5 40
11:00 1012 29.88 842 24.86 13.5 56.2 54 4.5 40
11:05 1012 29.88 842 24.86 13.6 56.5 55 4.7 40.4
11:10 1012 29.88 841 24.83 13.6 56.5 55 4.8 40.6
11:15 1012 29.88 841 24.83 13.6 56.5 55 4.7 40.5
11:20 1012 29.88 841 24.83 14 57.1 53 4.7 40.4
11:25 1012 29.88 841 24.83 13.9 57.1 53 4.6 40.4
11:30 1012 29.88 841 24.83 14 57.2 53 4.7 40.4
11:35 1012 29.88 841 24.83 14.1 57.4 53 4.6 40.3
11:40 1012 29.88 841 24.83 14.6 58.2 50 4.4 39.9
11:45 1012 29.88 841 24.83 14.9 58.8 49 4.4 40
11:50 1012 29.88 841 24.83 14.9 58.8 48 4 39.1
11:55 1012 29.88 841 24.83 15.5 59.9 47 4.4 39.8
12:00 1012 29.88 841 24.83 15.6 60.1 45 3.9 39.1
12:05 1012 29.88 841 24.83 15.9 60.5 43 3.5 38.4
12:10 1012 29.88 841 24.83 16.4 61.4 43 3.7 38.7
12:15 1012 29.88 841 24.83 16.3 61.4 42 3.4 38.2
12:20 1012 29.88 841 24.83 16.5 61.7 41 3.5 38.3
12:25 1011 29.85 841 24.83 16.7 62 38 2.5 36.5
12:30 1011 29.85 841 24.83 17.2 62.9 37 2.5 36.4
12:35 1011 29.85 841 24.83 17.4 63.3 34 1.6 34.8
12:40 1011 29.85 841 24.83 17.6 63.7 33 1.1 34
12:45 1011 29.85 840 24.81 18 64.4 32 1.3 34.4
12:50 1011 29.85 840 24.81 18 64.3 33 1.5 34.7
12:55 1011 29.85 840 24.81 18.4 65.1 33 2 35.5
13:00 1011 29.85 840 24.81 18.6 65.5 31 1.2 34.2
13:05 1011 29.85 840 24.81 18.4 65.1 32 1.6 34.9
13:10 1011 29.85 840 24.81 18.3 64.9 32 1.4 34.5
13:15 1011 29.85 840 24.81 18.5 65.2 32 1.5 34.8
13:20 1011 29.85 840 24.81 18.3 64.9 31 1.1 34
13:25 1011 29.85 840 24.81 19.1 66.3 29 1 33.8
13:30 1011 29.85 840 24.81 18.8 65.9 29 0.6 33.1
13:35 1011 29.85 840 24.81 19.7 67.4 29 1.2 34.1
13:40 1011 29.85 840 24.81 19.5 67 29 1.1 34
13:45 1011 29.85 840 24.81 18.6 65.5 33 2.1 35.9
13:50 1011 29.85 840 24.81 19.3 66.7 28 0.7 33.3
13:55 1011 29.85 840 24.81 20.1 68.1 27 0.9 33.6
14:00 1011 29.85 840 24.81 20.6 69 27 1 33.7
14:05 1011 29.85 840 24.81 19.9 67.7 28 1.1 33.9
14:10 1011 29.85 840 24.81 20.3 68.5 27 1 33.7
14:15 1011 29.85 840 24.81 19.8 67.7 28 1.1 34
14:20 1011 29.85 840 24.81 19.6 67.4 28 0.9 33.6
14:25 1011 29.85 840 24.81 20 68 27 0.4 32.7
14:30 1011 29.85 840 24.81 20.3 68.5 26 0.2 32.3
14:35 1011 29.85 840 24.81 19.5 67.1 26 -0.5 31.2
14:40 1011 29.85 840 24.81 20.4 68.7 23 -1.1 30
14:45 1011 29.85 840 24.81 20.6 69.1 24 -0.7 30.7
14:50 1011 29.85 840 24.81 20.8 69.5 24 -0.1 31.8
14:55 1011 29.85 840 24.81 21.2 70.1 24 -0.3 31.5
15:00 1011 29.85 840 24.81 21.2 70.2 22 -0.9 30.4
15:05 1011 29.85 840 24.81 21.6 70.8 22 -0.8 30.5
15:10 1010 29.83 840 24.81 21.5 70.8 23 -0.2 31.6
15:15 1010 29.83 840 24.81 21.1 69.9 24 -0.4 31.3
15:20 1010 29.83 840 24.81 21.6 70.8 23 -0.5 31.1
15:25 1010 29.83 839 24.78 21.8 71.2 21 -1.1 30
15:30 1010 29.83 839 24.78 21.6 70.9 22 -1 30.2
15:35 1010 29.83 839 24.78 21 69.7 23 -0.9 30.3
15:40 1010 29.83 839 24.78 21.4 70.5 22 -1.1 30
15:45 1010 29.83 839 24.78 21.5 70.8 23 -0.2 31.6
15:50 1010 29.83 839 24.78 22.2 71.9 22 -0.4 31.3
15:55 1010 29.83 839 24.78 22 71.5 22 -0.5 31.2
16:00 1010 29.83 839 24.78 21.7 71 23 -0.1 31.7
16:05 1010 29.83 839 24.78 21.5 70.7 22 -1.1 30
16:10 1010 29.83 839 24.78 21.9 71.4 23 0.1 32.2
16:15 1010 29.83 839 24.78 22.4 72.3 21 -0.6 31
16:20 1010 29.83 839 24.78 22.3 72.1 23 0.5 32.8
16:25 1010 29.83 839 24.78 22 71.6 21 -1.1 30.1
16:30 1010 29.83 839 24.78 21 69.7 25 0.3 32.6
16:35 1010 29.83 839 24.78 21.2 70.1 23 -0.3 31.4
16:40 1010 29.83 839 24.78 21.2 70.2 23 -0.4 31.3
16:45 1010 29.83 839 24.78 20.3 68.5 24 -0.9 30.4
16:50 1010 29.83 839 24.78 19.9 67.8 24 -0.8 30.5
16:55 1010 29.83 839 24.78 20.3 68.6 24 -0.8 30.6
17:00 1010 29.83 839 24.78 21.3 70.3 21 -1.6 29.2
17:05 1010 29.83 839 24.78 21 69.8 23 -0.9 30.4
17:10 1010 29.83 839 24.78 20.7 69.3 22 -1.4 29.4
17:15 1010 29.83 839 24.78 20.6 69 23 -1.3 29.7
17:20 1010 29.83 839 24.78 20.8 69.5 21 -1.9 28.6
17:25 1010 29.83 839 24.78 20.9 69.6 22 -1.5 29.3
17:30 1010 29.83 839 24.78 20.7 69.3 24 -0.7 30.8
17:35 1010 29.83 839 24.78 20.5 68.9 23 -1 30.1
17:40 1010 29.83 839 24.78 21 69.8 21 -2.1 28.2
17:45 1010 29.83 839 24.78 21.4 70.5 21 -1.5 29.3
17:50 1010 29.83 839 24.78 20.8 69.5 22 -1.6 29.2
17:55 1010 29.83 839 24.78 20.8 69.4 21 -2.1 28.2
18:00 1010 29.83 839 24.78 20.2 68.4 22 -1.9 28.7
18:05 1010 29.83 839 24.78 19.8 67.6 23 -1.9 28.6
18:10 1010 29.83 839 24.78 19.6 67.2 30 1.7 35.1
18:15 1010 29.83 839 24.78 19.5 67.1 30 1.8 35.3
18:20 1010 29.83 839 24.78 19.8 67.6 32 2.8 37.1
18:25 1010 29.83 839 24.78 19.5 67.1 33 2.8 37.1
18:30 1010 29.83 839 24.78 19.2 66.5 34 2.9 37.2
18:35 1010 29.83 839 24.78 18.8 65.8 35 3.2 37.8
18:40 1010 29.83 839 24.78 18.6 65.5 36 3.3 38
18:45 1010 29.83 839 24.78 18.3 65 37 3.4 38.1
18:50 1010 29.83 839 24.78 18.2 64.8 37 3.4 38.1
18:55 1010 29.83 839 24.78 18.2 64.8 37 3.5 38.2
19:00 1010 29.83 839 24.78 18.1 64.6 38 3.6 38.4
19:05 1010 29.83 839 24.78 17.9 64.2 38 3.5 38.3
19:10 1010 29.83 839 24.78 17.7 63.9 39 3.5 38.4
19:15 1010 29.83 839 24.78 17.5 63.5 39 3.5 38.3
19:20 1010 29.83 839 24.78 17.3 63.2 40 3.6 38.5
19:25 1010 29.83 839 24.78 17.2 62.9 40 3.7 38.7
19:30 1010 29.83 839 24.78 17.1 62.7 41 3.8 38.9
19:35 1010 29.83 839 24.78 16.9 62.5 41 3.8 38.9
19:40 1010 29.83 839 24.78 16.8 62.3 42 3.9 39
19:45 1010 29.83 839 24.78 16.8 62.2 42 3.9 39
19:50 1010 29.83 839 24.78 16.7 62 42 4 39.2
19:55 1010 29.83 839 24.78 16.6 61.9 43 4 39.2
20:00 1010 29.83 839 24.78 16.6 61.8 43 4.1 39.4
20:05 1010 29.83 839 24.78 16.5 61.6 43 4.1 39.4
20:10 1010 29.83 839 24.78 16.4 61.5 44 4.3 39.7
20:15 1010 29.83 839 24.78 16.2 61.2 44 4.2 39.6
20:20 1010 29.83 839 24.78 16.1 61.1 45 4.3 39.7
20:25 1010 29.83 840 24.81 16.1 60.9 45 4.3 39.7
20:30 1010 29.83 840 24.81 16 60.8 45 4.2 39.5
20:35 1010 29.83 840 24.81 15.9 60.7 45 4.2 39.6
20:40 1011 29.85 840 24.81 15.9 60.7 45 4.1 39.4
20:45 1011 29.85 840 24.81 15.9 60.5 45 4.2 39.5
20:50 1011 29.85 840 24.81 15.8 60.4 45 4.1 39.4
20:55 1011 29.85 840 24.81 15.7 60.3 45 4 39.2
21:00 1011 29.85 840 24.81 15.7 60.3 46 4.1 39.3
21:05 1011 29.85 840 24.81 15.7 60.3 45 3.9 39.1
21:10 1011 29.85 840 24.81 15.8 60.4 44 3.7 38.6
21:15 1011 29.85 840 24.81 15.9 60.5 44 3.7 38.6
21:20 1011 29.85 840 24.81 15.8 60.4 45 3.9 39
21:25 1011 29.85 840 24.81 15.7 60.2 45 3.8 38.8
21:30 1011 29.85 840 24.81 15.7 60.2 45 3.8 38.9
21:35 1011 29.85 840 24.81 15.7 60.2 45 3.7 38.7
21:40 1011 29.85 840 24.81 15.7 60.2 45 3.8 38.9
21:45 1011 29.85 840 24.81 15.7 60.2 45 3.9 39
21:50 1011 29.85 840 24.81 15.6 60 45 3.9 39
21:55 1011 29.85 840 24.81 15.5 59.9 46 3.9 39
22:00 1011 29.85 840 24.81 15.5 59.9 46 3.9 39
22:05 1011 29.85 840 24.81 15.5 59.9 45 3.8 38.9
22:10 1011 29.85 840 24.81 15.5 59.9 45 3.8 38.9
22:15 1011 29.85 840 24.81 15.4 59.8 46 3.8 38.9
22:20 1011 29.85 840 24.81 15.4 59.7 46 3.8 38.8
22:25 1011 29.85 840 24.81 15.4 59.7 46 3.8 38.9
22:30 1011 29.85 840 24.81 15.3 59.5 46 3.8 38.9
22:35 1011 29.85 840 24.81 15.3 59.5 46 3.9 38.9
22:40 1011 29.85 840 24.81 15.2 59.3 47 3.9 39.1
22:45 1011 29.85 840 24.81 15.1 59.3 47 3.9 39
22:50 1011 29.85 840 24.81 15.2 59.3 47 3.9 39
22:55 1011 29.85 840 24.81 15.1 59.2 47 3.8 38.9
23:00 1011 29.85 840 24.81 15.1 59.1 47 3.9 39
23:05 1011 29.85 840 24.81 15.1 59.1 47 3.9 39
23:10 1011 29.85 840 24.81 15 59.1 47 3.8 38.8
23:15 1011 29.85 840 24.81 15.1 59.2 46 3.7 38.7
23:20 1011 29.85 840 24.81 15.1 59.2 46 3.8 38.8
23:25 1011 29.85 840 24.81 15.1 59.1 47 3.8 38.8
23:30 1011 29.85 840 24.81 15 59 47 3.8 38.9
23:35 1011 29.85 840 24.81 15 59 47 3.8 38.8
23:40 1011 29.85 840 24.81 15 59 47 3.9 38.9
23:45 1011 29.85 840 24.81 14.9 58.9 47 3.7 38.7
23:50 1011 29.85 840 24.81 15 59 47 3.8 38.9
23:55 1011 29.85 840 24.81 15 59 46 3.7 38.7
24:00 1011 29.85 840 24.81 15 59 46 3.7 38.7